sensor_id;sensor_type;location;lat;lon;timestamp;P1;durP1;ratioP1;P2;durP2;ratioP2
19664;SDS011;9980;51.020;7.772;2023-07-30T00:00:52;3.23;;;2.43;;
19664;SDS011;9980;51.020;7.772;2023-07-30T00:03:19;2.80;;;2.10;;
19664;SDS011;9980;51.020;7.772;2023-07-30T00:05:51;4.97;;;2.33;;
19664;SDS011;9980;51.020;7.772;2023-07-30T00:08:22;2.30;;;2.10;;
19664;SDS011;9980;51.020;7.772;2023-07-30T00:10:49;2.53;;;2.30;;
19664;SDS011;9980;51.020;7.772;2023-07-30T00:13:17;2.57;;;2.17;;
19664;SDS011;9980;51.020;7.772;2023-07-30T00:15:47;2.80;;;2.40;;
19664;SDS011;9980;51.020;7.772;2023-07-30T00:18:15;2.20;;;2.00;;
19664;SDS011;9980;51.020;7.772;2023-07-30T00:20:43;4.87;;;2.20;;
19664;SDS011;9980;51.020;7.772;2023-07-30T00:23:10;2.63;;;2.20;;
19664;SDS011;9980;51.020;7.772;2023-07-30T00:25:37;2.70;;;2.20;;
19664;SDS011;9980;51.020;7.772;2023-07-30T00:28:04;2.37;;;2.17;;
19664;SDS011;9980;51.020;7.772;2023-07-30T00:30:31;4.03;;;2.57;;
19664;SDS011;9980;51.020;7.772;2023-07-30T00:32:58;2.60;;;2.40;;
19664;SDS011;9980;51.020;7.772;2023-07-30T00:35:25;2.83;;;2.43;;
19664;SDS011;9980;51.020;7.772;2023-07-30T00:37:52;4.80;;;2.43;;
19664;SDS011;9980;51.020;7.772;2023-07-30T00:40:22;3.50;;;2.57;;
19664;SDS011;9980;51.020;7.772;2023-07-30T00:42:49;3.83;;;2.40;;
19664;SDS011;9980;51.020;7.772;2023-07-30T00:45:16;4.30;;;2.93;;
19664;SDS011;9980;51.020;7.772;2023-07-30T00:47:43;2.93;;;2.37;;
19664;SDS011;9980;51.020;7.772;2023-07-30T00:50:14;4.47;;;2.53;;
19664;SDS011;9980;51.020;7.772;2023-07-30T00:52:44;3.30;;;2.10;;
19664;SDS011;9980;51.020;7.772;2023-07-30T00:55:11;2.43;;;2.17;;
19664;SDS011;9980;51.020;7.772;2023-07-30T00:57:42;2.73;;;2.20;;
19664;SDS011;9980;51.020;7.772;2023-07-30T01:00:10;3.27;;;2.87;;
19664;SDS011;9980;51.020;7.772;2023-07-30T01:02:38;2.73;;;2.33;;
19664;SDS011;9980;51.020;7.772;2023-07-30T01:05:05;2.77;;;2.50;;
19664;SDS011;9980;51.020;7.772;2023-07-30T01:07:33;1.93;;;1.83;;
19664;SDS011;9980;51.020;7.772;2023-07-30T01:10:00;2.73;;;2.47;;
19664;SDS011;9980;51.020;7.772;2023-07-30T01:12:29;4.70;;;2.93;;
19664;SDS011;9980;51.020;7.772;2023-07-30T01:14:58;4.10;;;2.77;;
19664;SDS011;9980;51.020;7.772;2023-07-30T01:17:26;3.37;;;2.70;;
19664;SDS011;9980;51.020;7.772;2023-07-30T01:19:53;3.37;;;2.70;;
19664;SDS011;9980;51.020;7.772;2023-07-30T01:22:23;3.30;;;3.00;;
19664;SDS011;9980;51.020;7.772;2023-07-30T01:24:50;3.93;;;3.43;;
19664;SDS011;9980;51.020;7.772;2023-07-30T01:27:25;6.47;;;3.83;;
19664;SDS011;9980;51.020;7.772;2023-07-30T01:30:04;4.67;;;3.43;;
19664;SDS011;9980;51.020;7.772;2023-07-30T01:32:49;3.73;;;3.20;;
19664;SDS011;9980;51.020;7.772;2023-07-30T01:35:21;4.23;;;3.83;;
19664;SDS011;9980;51.020;7.772;2023-07-30T01:37:52;4.93;;;3.63;;
19664;SDS011;9980;51.020;7.772;2023-07-30T01:40:21;3.30;;;3.00;;
19664;SDS011;9980;51.020;7.772;2023-07-30T01:42:48;4.70;;;3.40;;
19664;SDS011;9980;51.020;7.772;2023-07-30T01:45:16;2.73;;;2.50;;
19664;SDS011;9980;51.020;7.772;2023-07-30T01:47:43;3.30;;;3.10;;
19664;SDS011;9980;51.020;7.772;2023-07-30T01:50:10;2.73;;;2.53;;
19664;SDS011;9980;51.020;7.772;2023-07-30T01:52:37;3.37;;;2.60;;
19664;SDS011;9980;51.020;7.772;2023-07-30T01:55:05;6.07;;;2.87;;
19664;SDS011;9980;51.020;7.772;2023-07-30T01:57:32;6.13;;;3.07;;
19664;SDS011;9980;51.020;7.772;2023-07-30T01:59:59;3.30;;;3.00;;
19664;SDS011;9980;51.020;7.772;2023-07-30T02:02:26;4.50;;;2.63;;
19664;SDS011;9980;51.020;7.772;2023-07-30T02:04:54;9.23;;;2.63;;
19664;SDS011;9980;51.020;7.772;2023-07-30T02:07:21;2.60;;;2.40;;
19664;SDS011;9980;51.020;7.772;2023-07-30T02:09:48;2.77;;;2.50;;
19664;SDS011;9980;51.020;7.772;2023-07-30T02:12:15;2.30;;;2.10;;
19664;SDS011;9980;51.020;7.772;2023-07-30T02:14:42;3.70;;;2.67;;
19664;SDS011;9980;51.020;7.772;2023-07-30T02:17:09;2.90;;;2.60;;
19664;SDS011;9980;51.020;7.772;2023-07-30T02:19:35;2.67;;;2.47;;
19664;SDS011;9980;51.020;7.772;2023-07-30T02:22:02;3.63;;;2.60;;
19664;SDS011;9980;51.020;7.772;2023-07-30T02:24:30;3.90;;;2.80;;
19664;SDS011;9980;51.020;7.772;2023-07-30T02:26:57;3.30;;;2.60;;
19664;SDS011;9980;51.020;7.772;2023-07-30T02:29:24;4.03;;;1.97;;
19664;SDS011;9980;51.020;7.772;2023-07-30T02:31:51;2.97;;;2.17;;
19664;SDS011;9980;51.020;7.772;2023-07-30T02:34:18;2.67;;;2.47;;
19664;SDS011;9980;51.020;7.772;2023-07-30T02:36:47;5.03;;;2.40;;
19664;SDS011;9980;51.020;7.772;2023-07-30T02:39:15;2.83;;;1.93;;
19664;SDS011;9980;51.020;7.772;2023-07-30T02:41:42;4.13;;;2.50;;
19664;SDS011;9980;51.020;7.772;2023-07-30T02:44:09;2.00;;;1.83;;
19664;SDS011;9980;51.020;7.772;2023-07-30T02:46:36;2.90;;;2.50;;
19664;SDS011;9980;51.020;7.772;2023-07-30T02:49:03;3.07;;;2.50;;
19664;SDS011;9980;51.020;7.772;2023-07-30T02:51:30;2.77;;;2.30;;
19664;SDS011;9980;51.020;7.772;2023-07-30T02:53:57;3.33;;;2.33;;
19664;SDS011;9980;51.020;7.772;2023-07-30T02:56:25;4.57;;;2.47;;
19664;SDS011;9980;51.020;7.772;2023-07-30T02:58:52;5.80;;;2.37;;
19664;SDS011;9980;51.020;7.772;2023-07-30T03:01:20;4.23;;;2.40;;
19664;SDS011;9980;51.020;7.772;2023-07-30T03:03:47;4.03;;;2.40;;
19664;SDS011;9980;51.020;7.772;2023-07-30T03:06:14;2.03;;;1.90;;
19664;SDS011;9980;51.020;7.772;2023-07-30T03:08:43;4.10;;;2.33;;
19664;SDS011;9980;51.020;7.772;2023-07-30T03:11:10;3.10;;;2.73;;
19664;SDS011;9980;51.020;7.772;2023-07-30T03:13:37;2.23;;;2.10;;
19664;SDS011;9980;51.020;7.772;2023-07-30T03:16:04;2.87;;;2.53;;
19664;SDS011;9980;51.020;7.772;2023-07-30T03:18:31;7.37;;;3.23;;
19664;SDS011;9980;51.020;7.772;2023-07-30T03:20:58;4.87;;;3.27;;
19664;SDS011;9980;51.020;7.772;2023-07-30T03:23:29;5.43;;;3.73;;
19664;SDS011;9980;51.020;7.772;2023-07-30T03:25:58;7.90;;;4.10;;
19664;SDS011;9980;51.020;7.772;2023-07-30T03:28:26;5.87;;;3.97;;
19664;SDS011;9980;51.020;7.772;2023-07-30T03:30:53;3.73;;;3.43;;
19664;SDS011;9980;51.020;7.772;2023-07-30T03:33:20;4.50;;;3.53;;
19664;SDS011;9980;51.020;7.772;2023-07-30T03:35:49;5.70;;;3.60;;
19664;SDS011;9980;51.020;7.772;2023-07-30T03:38:16;4.20;;;3.47;;
19664;SDS011;9980;51.020;7.772;2023-07-30T03:40:43;4.03;;;3.20;;
19664;SDS011;9980;51.020;7.772;2023-07-30T03:43:10;6.20;;;3.47;;
19664;SDS011;9980;51.020;7.772;2023-07-30T03:45:38;4.93;;;3.03;;
19664;SDS011;9980;51.020;7.772;2023-07-30T03:48:05;4.03;;;3.27;;
19664;SDS011;9980;51.020;7.772;2023-07-30T03:50:32;4.20;;;3.27;;
19664;SDS011;9980;51.020;7.772;2023-07-30T03:52:59;5.00;;;3.60;;
19664;SDS011;9980;51.020;7.772;2023-07-30T03:55:26;6.47;;;3.70;;
19664;SDS011;9980;51.020;7.772;2023-07-30T03:57:54;4.07;;;3.27;;
19664;SDS011;9980;51.020;7.772;2023-07-30T04:00:23;5.30;;;3.00;;
19664;SDS011;9980;51.020;7.772;2023-07-30T04:02:50;4.03;;;2.63;;
19664;SDS011;9980;51.020;7.772;2023-07-30T04:05:17;6.20;;;2.97;;
19664;SDS011;9980;51.020;7.772;2023-07-30T04:07:44;3.27;;;2.90;;
19664;SDS011;9980;51.020;7.772;2023-07-30T04:10:11;3.93;;;2.97;;
19664;SDS011;9980;51.020;7.772;2023-07-30T04:12:38;5.97;;;2.63;;
19664;SDS011;9980;51.020;7.772;2023-07-30T04:15:06;3.80;;;3.30;;
19664;SDS011;9980;51.020;7.772;2023-07-30T04:17:34;5.10;;;3.33;;
19664;SDS011;9980;51.020;7.772;2023-07-30T04:20:04;4.17;;;2.80;;
19664;SDS011;9980;51.020;7.772;2023-07-30T04:22:31;4.70;;;2.87;;
19664;SDS011;9980;51.020;7.772;2023-07-30T04:24:59;5.17;;;2.53;;
19664;SDS011;9980;51.020;7.772;2023-07-30T04:27:26;2.80;;;2.60;;
19664;SDS011;9980;51.020;7.772;2023-07-30T04:29:57;2.90;;;2.60;;
19664;SDS011;9980;51.020;7.772;2023-07-30T04:32:24;5.93;;;2.80;;
19664;SDS011;9980;51.020;7.772;2023-07-30T04:34:51;2.40;;;2.20;;
19664;SDS011;9980;51.020;7.772;2023-07-30T04:37:18;3.87;;;2.47;;
19664;SDS011;9980;51.020;7.772;2023-07-30T04:39:45;7.50;;;2.97;;
19664;SDS011;9980;51.020;7.772;2023-07-30T04:42:12;3.77;;;2.57;;
19664;SDS011;9980;51.020;7.772;2023-07-30T04:44:42;6.57;;;2.53;;
19664;SDS011;9980;51.020;7.772;2023-07-30T04:47:13;4.23;;;2.50;;
19664;SDS011;9980;51.020;7.772;2023-07-30T04:49:40;4.17;;;2.70;;
19664;SDS011;9980;51.020;7.772;2023-07-30T04:52:07;6.10;;;2.53;;
19664;SDS011;9980;51.020;7.772;2023-07-30T04:54:34;3.57;;;2.53;;
19664;SDS011;9980;51.020;7.772;2023-07-30T04:57:02;4.73;;;2.83;;
19664;SDS011;9980;51.020;7.772;2023-07-30T04:59:29;6.13;;;2.67;;
19664;SDS011;9980;51.020;7.772;2023-07-30T05:01:56;3.40;;;2.50;;
19664;SDS011;9980;51.020;7.772;2023-07-30T05:04:23;2.77;;;2.33;;
19664;SDS011;9980;51.020;7.772;2023-07-30T05:06:50;7.13;;;2.63;;
19664;SDS011;9980;51.020;7.772;2023-07-30T05:09:17;5.70;;;2.90;;
19664;SDS011;9980;51.020;7.772;2023-07-30T05:11:44;3.83;;;2.90;;
19664;SDS011;9980;51.020;7.772;2023-07-30T05:14:11;5.00;;;2.73;;
19664;SDS011;9980;51.020;7.772;2023-07-30T05:16:38;3.00;;;2.50;;
19664;SDS011;9980;51.020;7.772;2023-07-30T05:19:05;6.00;;;2.90;;
19664;SDS011;9980;51.020;7.772;2023-07-30T05:21:32;6.60;;;2.47;;
19664;SDS011;9980;51.020;7.772;2023-07-30T05:23:59;4.30;;;2.83;;
19664;SDS011;9980;51.020;7.772;2023-07-30T05:26:26;4.83;;;2.50;;
19664;SDS011;9980;51.020;7.772;2023-07-30T05:28:53;6.00;;;2.77;;
19664;SDS011;9980;51.020;7.772;2023-07-30T05:31:20;2.87;;;2.40;;
19664;SDS011;9980;51.020;7.772;2023-07-30T05:33:47;5.50;;;2.80;;
19664;SDS011;9980;51.020;7.772;2023-07-30T05:36:14;6.33;;;2.70;;
19664;SDS011;9980;51.020;7.772;2023-07-30T05:38:41;3.03;;;2.73;;
19664;SDS011;9980;51.020;7.772;2023-07-30T05:41:07;7.67;;;2.87;;
19664;SDS011;9980;51.020;7.772;2023-07-30T05:43:34;3.77;;;2.90;;
19664;SDS011;9980;51.020;7.772;2023-07-30T05:46:01;4.33;;;3.17;;
19664;SDS011;9980;51.020;7.772;2023-07-30T05:48:28;3.87;;;2.57;;
19664;SDS011;9980;51.020;7.772;2023-07-30T05:50:55;4.23;;;2.90;;
19664;SDS011;9980;51.020;7.772;2023-07-30T05:53:22;3.30;;;2.80;;
19664;SDS011;9980;51.020;7.772;2023-07-30T05:55:50;6.13;;;3.00;;
19664;SDS011;9980;51.020;7.772;2023-07-30T05:58:17;6.53;;;2.97;;
19664;SDS011;9980;51.020;7.772;2023-07-30T06:00:44;4.43;;;2.80;;
19664;SDS011;9980;51.020;7.772;2023-07-30T06:03:11;8.00;;;3.30;;
19664;SDS011;9980;51.020;7.772;2023-07-30T06:05:39;3.97;;;2.73;;
19664;SDS011;9980;51.020;7.772;2023-07-30T06:08:07;3.83;;;2.60;;
19664;SDS011;9980;51.020;7.772;2023-07-30T06:10:35;4.23;;;2.57;;
19664;SDS011;9980;51.020;7.772;2023-07-30T06:13:06;4.30;;;2.80;;
19664;SDS011;9980;51.020;7.772;2023-07-30T06:15:33;3.50;;;2.77;;
19664;SDS011;9980;51.020;7.772;2023-07-30T06:18:01;4.17;;;2.60;;
19664;SDS011;9980;51.020;7.772;2023-07-30T06:20:29;7.57;;;2.83;;
19664;SDS011;9980;51.020;7.772;2023-07-30T06:22:57;4.60;;;3.33;;
19664;SDS011;9980;51.020;7.772;2023-07-30T06:25:24;3.67;;;2.47;;
19664;SDS011;9980;51.020;7.772;2023-07-30T06:27:51;6.40;;;2.97;;
19664;SDS011;9980;51.020;7.772;2023-07-30T06:30:20;4.60;;;2.83;;
19664;SDS011;9980;51.020;7.772;2023-07-30T06:32:47;4.53;;;2.37;;
19664;SDS011;9980;51.020;7.772;2023-07-30T06:35:14;3.80;;;3.10;;
19664;SDS011;9980;51.020;7.772;2023-07-30T06:37:42;2.80;;;2.50;;
19664;SDS011;9980;51.020;7.772;2023-07-30T06:40:09;4.90;;;2.53;;
19664;SDS011;9980;51.020;7.772;2023-07-30T06:42:36;6.00;;;1.93;;
19664;SDS011;9980;51.020;7.772;2023-07-30T06:45:03;3.67;;;2.40;;
19664;SDS011;9980;51.020;7.772;2023-07-30T06:47:34;4.10;;;1.90;;
19664;SDS011;9980;51.020;7.772;2023-07-30T06:50:02;7.23;;;2.57;;
19664;SDS011;9980;51.020;7.772;2023-07-30T06:52:31;4.67;;;2.30;;
19664;SDS011;9980;51.020;7.772;2023-07-30T06:54:58;4.53;;;2.20;;
19664;SDS011;9980;51.020;7.772;2023-07-30T06:57:25;6.53;;;2.10;;
19664;SDS011;9980;51.020;7.772;2023-07-30T06:59:52;4.67;;;2.40;;
19664;SDS011;9980;51.020;7.772;2023-07-30T07:02:22;5.43;;;2.67;;
19664;SDS011;9980;51.020;7.772;2023-07-30T07:04:49;3.83;;;2.50;;
19664;SDS011;9980;51.020;7.772;2023-07-30T07:07:17;6.70;;;2.73;;
19664;SDS011;9980;51.020;7.772;2023-07-30T07:09:43;6.43;;;2.63;;
19664;SDS011;9980;51.020;7.772;2023-07-30T07:12:10;4.37;;;1.90;;
19664;SDS011;9980;51.020;7.772;2023-07-30T07:14:37;4.37;;;1.90;;
19664;SDS011;9980;51.020;7.772;2023-07-30T07:17:05;3.93;;;2.00;;
19664;SDS011;9980;51.020;7.772;2023-07-30T07:19:32;2.97;;;1.93;;
19664;SDS011;9980;51.020;7.772;2023-07-30T07:22:04;5.10;;;1.60;;
19664;SDS011;9980;51.020;7.772;2023-07-30T07:24:32;3.40;;;1.60;;
19664;SDS011;9980;51.020;7.772;2023-07-30T07:27:01;4.70;;;1.90;;
19664;SDS011;9980;51.020;7.772;2023-07-30T07:29:28;4.97;;;2.03;;
19664;SDS011;9980;51.020;7.772;2023-07-30T07:31:55;2.50;;;1.90;;
19664;SDS011;9980;51.020;7.772;2023-07-30T07:34:22;3.37;;;1.83;;
19664;SDS011;9980;51.020;7.772;2023-07-30T07:36:49;6.33;;;2.03;;
19664;SDS011;9980;51.020;7.772;2023-07-30T07:39:16;4.90;;;2.03;;
19664;SDS011;9980;51.020;7.772;2023-07-30T07:41:46;3.90;;;2.13;;
19664;SDS011;9980;51.020;7.772;2023-07-30T07:44:12;2.27;;;1.70;;
19664;SDS011;9980;51.020;7.772;2023-07-30T07:46:40;2.40;;;1.97;;
19664;SDS011;9980;51.020;7.772;2023-07-30T07:49:07;2.70;;;2.43;;
19664;SDS011;9980;51.020;7.772;2023-07-30T07:51:34;3.13;;;2.50;;
19664;SDS011;9980;51.020;7.772;2023-07-30T07:54:02;2.87;;;2.30;;
19664;SDS011;9980;51.020;7.772;2023-07-30T07:56:29;4.40;;;2.53;;
19664;SDS011;9980;51.020;7.772;2023-07-30T07:58:57;4.50;;;2.83;;
19664;SDS011;9980;51.020;7.772;2023-07-30T08:01:24;3.43;;;2.50;;
19664;SDS011;9980;51.020;7.772;2023-07-30T08:03:51;4.27;;;2.57;;
19664;SDS011;9980;51.020;7.772;2023-07-30T08:06:19;5.10;;;2.83;;
19664;SDS011;9980;51.020;7.772;2023-07-30T08:08:45;3.33;;;3.00;;
19664;SDS011;9980;51.020;7.772;2023-07-30T08:11:12;3.13;;;2.60;;
19664;SDS011;9980;51.020;7.772;2023-07-30T08:13:39;7.53;;;3.30;;
19664;SDS011;9980;51.020;7.772;2023-07-30T08:16:07;5.97;;;3.13;;
19664;SDS011;9980;51.020;7.772;2023-07-30T08:18:34;3.60;;;2.83;;
19664;SDS011;9980;51.020;7.772;2023-07-30T08:21:01;3.57;;;3.27;;
19664;SDS011;9980;51.020;7.772;2023-07-30T08:23:28;3.93;;;3.20;;
19664;SDS011;9980;51.020;7.772;2023-07-30T08:25:55;3.33;;;2.93;;
19664;SDS011;9980;51.020;7.772;2023-07-30T08:28:22;3.60;;;3.30;;
19664;SDS011;9980;51.020;7.772;2023-07-30T08:30:49;6.23;;;3.07;;
19664;SDS011;9980;51.020;7.772;2023-07-30T08:33:16;6.13;;;3.03;;
19664;SDS011;9980;51.020;7.772;2023-07-30T08:35:43;3.43;;;2.87;;
19664;SDS011;9980;51.020;7.772;2023-07-30T08:38:10;3.37;;;3.07;;
19664;SDS011;9980;51.020;7.772;2023-07-30T08:40:37;4.33;;;2.90;;
19664;SDS011;9980;51.020;7.772;2023-07-30T08:43:04;4.17;;;3.20;;
19664;SDS011;9980;51.020;7.772;2023-07-30T08:45:31;3.57;;;3.20;;
19664;SDS011;9980;51.020;7.772;2023-07-30T08:47:58;5.87;;;3.90;;
19664;SDS011;9980;51.020;7.772;2023-07-30T08:50:26;7.27;;;4.07;;
19664;SDS011;9980;51.020;7.772;2023-07-30T08:52:54;5.90;;;3.50;;
19664;SDS011;9980;51.020;7.772;2023-07-30T08:55:23;4.73;;;3.80;;
19664;SDS011;9980;51.020;7.772;2023-07-30T08:57:53;4.10;;;3.57;;
19664;SDS011;9980;51.020;7.772;2023-07-30T09:00:22;3.90;;;3.60;;
19664;SDS011;9980;51.020;7.772;2023-07-30T09:03:03;5.13;;;3.80;;
19664;SDS011;9980;51.020;7.772;2023-07-30T09:05:32;3.80;;;2.97;;
19664;SDS011;9980;51.020;7.772;2023-07-30T09:07:59;6.20;;;3.30;;
19664;SDS011;9980;51.020;7.772;2023-07-30T09:10:27;7.00;;;3.50;;
19664;SDS011;9980;51.020;7.772;2023-07-30T09:12:54;3.30;;;3.00;;
19664;SDS011;9980;51.020;7.772;2023-07-30T09:15:36;4.63;;;3.33;;
19664;SDS011;9980;51.020;7.772;2023-07-30T09:18:05;6.70;;;4.07;;
19664;SDS011;9980;51.020;7.772;2023-07-30T09:20:38;5.57;;;3.93;;
19664;SDS011;9980;51.020;7.772;2023-07-30T09:23:07;7.17;;;4.03;;
19664;SDS011;9980;51.020;7.772;2023-07-30T09:25:36;5.43;;;3.37;;
19664;SDS011;9980;51.020;7.772;2023-07-30T09:28:07;5.67;;;3.23;;
19664;SDS011;9980;51.020;7.772;2023-07-30T09:30:34;3.70;;;3.17;;
19664;SDS011;9980;51.020;7.772;2023-07-30T09:33:01;5.37;;;3.63;;
19664;SDS011;9980;51.020;7.772;2023-07-30T09:35:28;4.93;;;3.07;;
19664;SDS011;9980;51.020;7.772;2023-07-30T09:38:01;3.80;;;3.07;;
19664;SDS011;9980;51.020;7.772;2023-07-30T09:40:30;4.17;;;3.43;;
19664;SDS011;9980;51.020;7.772;2023-07-30T09:42:59;4.50;;;3.60;;
19664;SDS011;9980;51.020;7.772;2023-07-30T09:45:26;6.07;;;3.43;;
19664;SDS011;9980;51.020;7.772;2023-07-30T09:47:54;7.83;;;3.97;;
19664;SDS011;9980;51.020;7.772;2023-07-30T09:50:24;6.23;;;3.03;;
19664;SDS011;9980;51.020;7.772;2023-07-30T09:52:51;6.33;;;3.93;;
19664;SDS011;9980;51.020;7.772;2023-07-30T09:55:18;5.30;;;3.37;;
19664;SDS011;9980;51.020;7.772;2023-07-30T09:57:46;4.90;;;3.43;;
19664;SDS011;9980;51.020;7.772;2023-07-30T10:00:14;5.70;;;3.30;;
19664;SDS011;9980;51.020;7.772;2023-07-30T10:02:46;6.50;;;3.37;;
19664;SDS011;9980;51.020;7.772;2023-07-30T10:05:17;4.47;;;3.77;;
19664;SDS011;9980;51.020;7.772;2023-07-30T10:08:30;7.03;;;3.87;;
19664;SDS011;9980;51.020;7.772;2023-07-30T10:10:43;5.27;;;3.40;;
19664;SDS011;9980;51.020;7.772;2023-07-30T10:13:10;5.17;;;3.30;;
19664;SDS011;9980;51.020;7.772;2023-07-30T10:15:39;4.93;;;3.33;;
19664;SDS011;9980;51.020;7.772;2023-07-30T10:18:06;5.77;;;3.40;;
19664;SDS011;9980;51.020;7.772;2023-07-30T10:20:33;7.47;;;3.60;;
19664;SDS011;9980;51.020;7.772;2023-07-30T10:23:01;4.03;;;2.90;;
19664;SDS011;9980;51.020;7.772;2023-07-30T10:25:48;6.60;;;3.53;;
19664;SDS011;9980;51.020;7.772;2023-07-30T10:30:56;5.87;;;2.73;;
19664;SDS011;9980;51.020;7.772;2023-07-30T10:41:48;3.67;;;2.00;;
19664;SDS011;9980;51.020;7.772;2023-07-30T10:44:18;4.55;;;2.25;;
19664;SDS011;9980;51.020;7.772;2023-07-30T10:46:49;4.20;;;2.50;;
19664;SDS011;9980;51.020;7.772;2023-07-30T10:49:18;5.00;;;2.23;;
19664;SDS011;9980;51.020;7.772;2023-07-30T10:51:46;5.73;;;2.20;;
19664;SDS011;9980;51.020;7.772;2023-07-30T10:54:13;3.63;;;1.97;;
19664;SDS011;9980;51.020;7.772;2023-07-30T10:59:37;5.53;;;1.90;;
19664;SDS011;9980;51.020;7.772;2023-07-30T11:04:50;4.23;;;1.83;;
19664;SDS011;9980;51.020;7.772;2023-07-30T11:07:20;4.33;;;1.80;;
19664;SDS011;9980;51.020;7.772;2023-07-30T11:12:47;5.07;;;2.17;;
19664;SDS011;9980;51.020;7.772;2023-07-30T11:15:18;6.47;;;2.33;;
19664;SDS011;9980;51.020;7.772;2023-07-30T11:17:45;6.60;;;1.90;;
19664;SDS011;9980;51.020;7.772;2023-07-30T11:20:23;5.00;;;2.03;;
19664;SDS011;9980;51.020;7.772;2023-07-30T11:22:53;4.50;;;1.70;;
19664;SDS011;9980;51.020;7.772;2023-07-30T11:25:20;4.20;;;1.70;;
19664;SDS011;9980;51.020;7.772;2023-07-30T11:27:47;4.93;;;2.10;;
19664;SDS011;9980;51.020;7.772;2023-07-30T11:30:16;4.93;;;1.60;;
19664;SDS011;9980;51.020;7.772;2023-07-30T11:32:45;5.68;;;1.70;;
19664;SDS011;9980;51.020;7.772;2023-07-30T11:35:13;5.10;;;1.80;;
19664;SDS011;9980;51.020;7.772;2023-07-30T11:37:43;4.57;;;1.35;;
19664;SDS011;9980;51.020;7.772;2023-07-30T11:40:10;2.80;;;1.37;;
19664;SDS011;9980;51.020;7.772;2023-07-30T11:42:38;2.25;;;1.60;;
19664;SDS011;9980;51.020;7.772;2023-07-30T11:45:21;6.60;;;1.60;;
19664;SDS011;9980;51.020;7.772;2023-07-30T11:47:49;4.25;;;1.40;;
19664;SDS011;9980;51.020;7.772;2023-07-30T11:50:17;4.13;;;1.50;;
19664;SDS011;9980;51.020;7.772;2023-07-30T11:52:51;3.03;;;1.40;;
19664;SDS011;9980;51.020;7.772;2023-07-30T11:55:22;2.65;;;1.48;;
19664;SDS011;9980;51.020;7.772;2023-07-30T11:57:52;4.45;;;1.70;;
19664;SDS011;9980;51.020;7.772;2023-07-30T12:00:21;5.20;;;1.60;;
19664;SDS011;9980;51.020;7.772;2023-07-30T12:02:49;3.55;;;1.25;;
19664;SDS011;9980;51.020;7.772;2023-07-30T12:05:16;2.42;;;1.55;;
19664;SDS011;9980;51.020;7.772;2023-07-30T12:07:46;3.25;;;1.40;;
19664;SDS011;9980;51.020;7.772;2023-07-30T12:10:14;4.80;;;1.50;;
19664;SDS011;9980;51.020;7.772;2023-07-30T12:12:46;4.60;;;1.58;;
19664;SDS011;9980;51.020;7.772;2023-07-30T12:15:19;3.60;;;1.13;;
19664;SDS011;9980;51.020;7.772;2023-07-30T12:17:46;2.88;;;1.40;;
19664;SDS011;9980;51.020;7.772;2023-07-30T12:20:13;4.72;;;1.40;;
19664;SDS011;9980;51.020;7.772;2023-07-30T12:22:40;2.92;;;1.23;;
19664;SDS011;9980;51.020;7.772;2023-07-30T12:25:08;4.25;;;1.23;;
19664;SDS011;9980;51.020;7.772;2023-07-30T12:27:36;4.57;;;1.33;;
19664;SDS011;9980;51.020;7.772;2023-07-30T12:30:03;4.28;;;1.50;;
19664;SDS011;9980;51.020;7.772;2023-07-30T12:32:31;4.38;;;1.45;;
19664;SDS011;9980;51.020;7.772;2023-07-30T12:34:58;4.50;;;1.38;;
19664;SDS011;9980;51.020;7.772;2023-07-30T12:37:25;4.05;;;1.38;;
19664;SDS011;9980;51.020;7.772;2023-07-30T12:39:52;2.40;;;1.23;;
19664;SDS011;9980;51.020;7.772;2023-07-30T12:42:19;2.85;;;1.60;;
19664;SDS011;9980;51.020;7.772;2023-07-30T12:44:46;4.65;;;1.45;;
19664;SDS011;9980;51.020;7.772;2023-07-30T12:47:13;4.05;;;1.23;;
19664;SDS011;9980;51.020;7.772;2023-07-30T12:49:40;2.88;;;1.55;;
19664;SDS011;9980;51.020;7.772;2023-07-30T12:52:07;4.73;;;1.53;;
19664;SDS011;9980;51.020;7.772;2023-07-30T12:54:34;3.75;;;1.50;;
19664;SDS011;9980;51.020;7.772;2023-07-30T12:57:01;6.03;;;1.80;;
19664;SDS011;9980;51.020;7.772;2023-07-30T12:59:29;3.30;;;1.40;;
19664;SDS011;9980;51.020;7.772;2023-07-30T13:01:57;3.15;;;1.42;;
19664;SDS011;9980;51.020;7.772;2023-07-30T13:04:25;4.03;;;1.40;;
19664;SDS011;9980;51.020;7.772;2023-07-30T13:06:54;6.80;;;1.75;;
19664;SDS011;9980;51.020;7.772;2023-07-30T13:09:21;6.22;;;1.35;;
19664;SDS011;9980;51.020;7.772;2023-07-30T13:11:48;3.35;;;1.83;;
19664;SDS011;9980;51.020;7.772;2023-07-30T13:14:16;2.75;;;1.20;;
19664;SDS011;9980;51.020;7.772;2023-07-30T13:16:43;3.78;;;1.20;;
19664;SDS011;9980;51.020;7.772;2023-07-30T13:19:10;2.83;;;1.35;;
19664;SDS011;9980;51.020;7.772;2023-07-30T13:21:37;2.97;;;1.35;;
19664;SDS011;9980;51.020;7.772;2023-07-30T13:24:05;3.67;;;1.50;;
19664;SDS011;9980;51.020;7.772;2023-07-30T13:26:32;4.47;;;1.13;;
19664;SDS011;9980;51.020;7.772;2023-07-30T13:28:59;5.33;;;1.40;;
19664;SDS011;9980;51.020;7.772;2023-07-30T13:31:28;3.97;;;1.80;;
19664;SDS011;9980;51.020;7.772;2023-07-30T13:33:56;1.60;;;1.30;;
19664;SDS011;9980;51.020;7.772;2023-07-30T13:36:23;2.77;;;1.57;;
19664;SDS011;9980;51.020;7.772;2023-07-30T13:38:50;2.33;;;1.77;;
19664;SDS011;9980;51.020;7.772;2023-07-30T13:41:17;6.43;;;1.60;;
19664;SDS011;9980;51.020;7.772;2023-07-30T13:43:44;4.90;;;1.40;;
19664;SDS011;9980;51.020;7.772;2023-07-30T13:46:11;3.10;;;1.50;;
19664;SDS011;9980;51.020;7.772;2023-07-30T13:48:38;1.90;;;1.30;;
19664;SDS011;9980;51.020;7.772;2023-07-30T13:51:05;4.90;;;1.70;;
19664;SDS011;9980;51.020;7.772;2023-07-30T13:53:32;2.27;;;1.10;;
19664;SDS011;9980;51.020;7.772;2023-07-30T13:56:01;3.75;;;1.20;;
19664;SDS011;9980;51.020;7.772;2023-07-30T13:58:28;4.90;;;1.43;;
19664;SDS011;9980;51.020;7.772;2023-07-30T14:00:55;2.70;;;1.27;;
19664;SDS011;9980;51.020;7.772;2023-07-30T14:03:22;4.43;;;1.42;;
19664;SDS011;9980;51.020;7.772;2023-07-30T14:05:49;5.07;;;1.45;;
19664;SDS011;9980;51.020;7.772;2023-07-30T14:08:16;5.25;;;1.70;;
19664;SDS011;9980;51.020;7.772;2023-07-30T14:10:44;3.05;;;1.20;;
19664;SDS011;9980;51.020;7.772;2023-07-30T14:13:11;3.88;;;1.33;;
19664;SDS011;9980;51.020;7.772;2023-07-30T14:15:38;2.60;;;1.20;;
19664;SDS011;9980;51.020;7.772;2023-07-30T14:18:05;4.93;;;1.40;;
19664;SDS011;9980;51.020;7.772;2023-07-30T14:20:32;3.92;;;1.15;;
19664;SDS011;9980;51.020;7.772;2023-07-30T14:22:59;3.20;;;1.20;;
19664;SDS011;9980;51.020;7.772;2023-07-30T14:25:28;4.68;;;1.38;;
19664;SDS011;9980;51.020;7.772;2023-07-30T14:27:56;3.78;;;1.25;;
19664;SDS011;9980;51.020;7.772;2023-07-30T14:30:23;3.85;;;1.45;;
19664;SDS011;9980;51.020;7.772;2023-07-30T14:32:50;3.55;;;1.45;;
19664;SDS011;9980;51.020;7.772;2023-07-30T14:35:17;3.97;;;1.38;;
19664;SDS011;9980;51.020;7.772;2023-07-30T14:37:44;5.30;;;1.75;;
19664;SDS011;9980;51.020;7.772;2023-07-30T14:40:11;4.20;;;1.48;;
19664;SDS011;9980;51.020;7.772;2023-07-30T14:42:38;3.00;;;1.50;;
19664;SDS011;9980;51.020;7.772;2023-07-30T14:45:07;3.72;;;1.25;;
19664;SDS011;9980;51.020;7.772;2023-07-30T14:47:34;3.63;;;1.20;;
19664;SDS011;9980;51.020;7.772;2023-07-30T14:50:01;3.55;;;1.30;;
19664;SDS011;9980;51.020;7.772;2023-07-30T14:52:29;3.92;;;0.93;;
19664;SDS011;9980;51.020;7.772;2023-07-30T14:54:56;3.15;;;1.25;;
19664;SDS011;9980;51.020;7.772;2023-07-30T14:57:23;3.80;;;1.35;;
19664;SDS011;9980;51.020;7.772;2023-07-30T14:59:50;5.78;;;1.80;;
19664;SDS011;9980;51.020;7.772;2023-07-30T15:02:18;6.60;;;1.38;;
19664;SDS011;9980;51.020;7.772;2023-07-30T15:04:45;4.45;;;1.33;;
19664;SDS011;9980;51.020;7.772;2023-07-30T15:07:12;4.32;;;1.30;;
19664;SDS011;9980;51.020;7.772;2023-07-30T15:09:39;3.97;;;1.33;;
19664;SDS011;9980;51.020;7.772;2023-07-30T15:12:06;3.95;;;1.40;;
19664;SDS011;9980;51.020;7.772;2023-07-30T15:14:35;3.50;;;1.45;;
19664;SDS011;9980;51.020;7.772;2023-07-30T15:17:02;3.28;;;1.30;;
19664;SDS011;9980;51.020;7.772;2023-07-30T15:19:29;4.68;;;1.40;;
19664;SDS011;9980;51.020;7.772;2023-07-30T15:21:56;3.50;;;1.27;;
19664;SDS011;9980;51.020;7.772;2023-07-30T15:24:23;3.40;;;1.30;;